createdAt,value
2017-12-08T19:24:44.071Z,2.60
2017-12-08T19:25:44.039Z,5.30
2017-12-08T19:27:36.919Z,4.40
2017-12-08T19:28:36.881Z,4.10
2017-12-08T19:30:29.760Z,2.80
2017-12-08T19:31:29.735Z,3.30
2017-12-08T19:33:22.629Z,4.30
2017-12-08T19:34:22.596Z,3.40
2017-12-08T19:35:22.725Z,5.00
2017-12-08T19:36:22.571Z,5.10
2017-12-08T19:37:22.564Z,5.70
2017-12-08T19:38:22.555Z,4.50
2017-12-08T19:39:22.553Z,5.30
2017-12-08T19:40:22.545Z,4.60
2017-12-08T19:41:22.525Z,4.40
2017-12-08T19:42:22.521Z,5.00
2017-12-08T19:43:22.508Z,6.40
2017-12-08T19:44:22.506Z,7.20
2017-12-08T19:45:22.486Z,5.60
2017-12-08T19:46:22.479Z,4.60
2017-12-08T19:47:22.474Z,7.10
2017-12-08T19:48:22.470Z,4.40
2017-12-08T19:49:22.465Z,5.20
2017-12-08T19:50:22.457Z,7.60
2017-12-08T19:51:22.436Z,7.50
2017-12-08T19:52:22.431Z,8.00
2017-12-08T19:53:22.481Z,9.00
2017-12-08T19:54:22.416Z,8.70
2017-12-08T19:55:22.405Z,10.40
2017-12-08T19:56:22.399Z,7.00
2017-12-08T19:57:22.395Z,7.90
2017-12-08T19:58:22.394Z,8.60
2017-12-08T19:59:22.394Z,6.60
2017-12-08T20:00:22.367Z,6.30
2017-12-08T20:01:22.358Z,6.40
2017-12-08T20:02:22.351Z,6.90
2017-12-08T20:03:22.334Z,6.10
2017-12-08T20:04:22.334Z,7.00
2017-12-08T20:05:22.347Z,7.60
2017-12-08T20:06:22.330Z,8.60
2017-12-08T20:07:22.301Z,8.20
2017-12-08T20:08:22.309Z,8.80
2017-12-08T20:09:22.284Z,6.10
2017-12-08T20:10:22.280Z,6.00
2017-12-08T20:11:22.265Z,6.90
2017-12-08T20:12:22.259Z,6.60
2017-12-08T20:13:22.251Z,5.90
2017-12-08T20:14:22.239Z,5.50
2017-12-08T20:15:22.236Z,7.50
2017-12-08T20:16:22.225Z,7.30
2017-12-08T20:17:22.213Z,5.20
2017-12-08T20:18:22.200Z,6.30
2017-12-08T20:19:22.217Z,5.90
2017-12-08T20:20:22.189Z,6.30
2017-12-08T20:21:22.179Z,5.30
2017-12-08T20:22:22.178Z,5.20
2017-12-08T20:23:22.203Z,4.90
2017-12-08T20:24:22.146Z,5.70
2017-12-08T20:25:22.140Z,5.10
2017-12-08T20:26:22.134Z,5.70
2017-12-08T20:27:22.141Z,5.60
2017-12-08T20:28:22.114Z,6.70
2017-12-08T20:29:22.107Z,5.30
2017-12-08T20:30:22.098Z,6.10
2017-12-08T20:31:22.102Z,8.60
2017-12-08T20:32:22.078Z,12.40
2017-12-08T20:33:22.069Z,7.00
2017-12-08T20:34:22.058Z,9.10
2017-12-08T20:35:22.053Z,7.30
2017-12-08T20:36:22.044Z,6.70
2017-12-08T20:37:22.033Z,7.90
2017-12-08T20:38:22.020Z,7.40
2017-12-08T20:39:22.018Z,5.80
2017-12-08T20:40:22.006Z,5.60
2017-12-08T20:41:21.998Z,5.20
2017-12-08T20:42:21.989Z,5.10
2017-12-08T20:43:21.994Z,5.70
2017-12-08T20:44:21.980Z,6.20
2017-12-08T20:45:21.960Z,4.60
2017-12-08T20:46:21.952Z,5.50
2017-12-08T20:47:21.946Z,4.90
2017-12-08T20:48:21.931Z,4.20
2017-12-08T20:49:21.925Z,5.30
2017-12-08T20:50:21.941Z,4.30
2017-12-08T20:51:21.906Z,3.10
2017-12-08T20:52:21.898Z,5.30
2017-12-08T20:53:21.888Z,4.70
2017-12-08T20:54:21.885Z,3.80
2017-12-08T20:55:21.867Z,4.40
2017-12-08T20:56:21.861Z,4.60
2017-12-08T20:57:21.850Z,3.80
2017-12-08T20:58:21.838Z,3.60
2017-12-08T20:59:21.850Z,4.50
2017-12-08T21:00:21.822Z,4.10
2017-12-08T21:01:21.812Z,4.20
2017-12-08T21:02:21.805Z,5.30
2017-12-08T21:03:21.800Z,5.20
2017-12-08T21:04:21.782Z,2.70
2017-12-08T21:05:21.772Z,3.70
2017-12-08T21:06:21.767Z,5.00
2017-12-08T21:07:21.758Z,4.90
2017-12-08T21:08:21.747Z,4.80
2017-12-08T21:09:21.734Z,4.60
2017-12-08T21:10:21.727Z,5.70
2017-12-08T21:11:21.720Z,5.40
2017-12-08T21:12:21.730Z,6.80
2017-12-08T21:13:21.698Z,6.60
2017-12-08T21:14:21.687Z,9.60
2017-12-08T21:15:21.681Z,9.70
2017-12-08T21:16:21.670Z,6.90
2017-12-08T21:17:21.662Z,8.30
2017-12-08T21:18:21.652Z,7.10
2017-12-08T21:19:21.642Z,6.60
2017-12-08T21:20:21.630Z,7.60
2017-12-08T21:21:21.623Z,9.20
2017-12-08T21:22:21.616Z,8.10
2017-12-08T21:23:21.602Z,6.60
2017-12-08T21:24:21.593Z,8.80
2017-12-08T21:25:22.142Z,7.40
2017-12-08T21:26:21.574Z,6.30
2017-12-08T21:27:21.566Z,7.30
2017-12-08T21:28:21.552Z,9.60
2017-12-08T21:29:21.541Z,10.10
2017-12-08T21:30:21.538Z,8.80
2017-12-08T21:31:21.529Z,8.80
2017-12-08T21:32:21.516Z,10.00
2017-12-08T21:33:21.505Z,8.30
2017-12-08T21:34:21.498Z,9.70
2017-12-08T21:35:21.491Z,8.40
2017-12-08T21:36:21.478Z,8.10
2017-12-08T21:37:21.470Z,7.40
2017-12-08T21:38:21.459Z,8.00
2017-12-08T21:39:21.450Z,7.90
2017-12-08T21:40:21.441Z,6.80
2017-12-08T21:41:21.431Z,6.80
2017-12-08T21:42:21.421Z,5.80
2017-12-08T21:43:21.413Z,6.10
2017-12-08T21:44:21.400Z,6.20
2017-12-08T21:45:21.394Z,4.30
2017-12-08T21:46:21.383Z,5.40
2017-12-08T21:47:21.376Z,8.90
2017-12-08T21:48:21.362Z,5.50
2017-12-08T21:49:21.350Z,4.60
2017-12-08T21:50:21.341Z,4.40
2017-12-08T21:51:21.340Z,5.10
2017-12-08T21:52:21.324Z,6.30
2017-12-08T21:53:21.314Z,5.20
2017-12-08T21:54:21.303Z,5.30
2017-12-08T21:55:21.298Z,5.40
2017-12-08T21:56:21.285Z,5.00
2017-12-08T21:57:21.276Z,4.20
2017-12-08T21:58:21.265Z,3.80
2017-12-08T21:59:21.252Z,5.90
2017-12-08T22:00:21.249Z,3.90
2017-12-08T22:01:21.238Z,5.40
2017-12-08T22:02:21.228Z,5.40
2017-12-08T22:03:21.215Z,6.70
2017-12-08T22:04:21.203Z,4.30
2017-12-08T22:05:21.197Z,5.50
2017-12-08T22:06:21.183Z,4.10
2017-12-08T22:07:21.181Z,5.00
2017-12-08T22:08:21.168Z,6.00
2017-12-08T22:09:21.151Z,7.80
2017-12-08T22:10:21.151Z,6.10
2017-12-08T22:11:21.134Z,4.80
2017-12-08T22:12:21.138Z,5.90
2017-12-08T22:13:21.121Z,4.40
2017-12-08T22:14:21.108Z,5.40
2017-12-08T22:15:21.100Z,5.20
2017-12-08T22:16:21.087Z,5.70
2017-12-08T22:17:21.077Z,6.60
2017-12-08T22:18:21.075Z,5.10
2017-12-08T22:19:21.058Z,6.70
2017-12-08T22:20:21.050Z,5.60
2017-12-08T22:21:21.038Z,4.30
2017-12-08T22:22:21.031Z,4.80
2017-12-08T22:23:21.020Z,6.00
2017-12-08T22:24:21.033Z,6.60
2017-12-08T22:25:21.000Z,7.70
2017-12-08T22:26:20.990Z,5.50
2017-12-08T22:27:20.978Z,6.70
2017-12-08T22:28:20.974Z,5.30
2017-12-08T22:29:20.957Z,5.90
2017-12-08T22:30:20.950Z,5.60
2017-12-08T22:31:20.940Z,5.60
2017-12-08T22:32:20.930Z,4.80
2017-12-08T22:33:20.922Z,4.90
2017-12-08T22:34:20.907Z,5.00
2017-12-08T22:35:20.900Z,6.00
2017-12-08T22:36:20.889Z,6.50
2017-12-08T22:37:20.907Z,5.40
2017-12-08T22:38:20.877Z,6.50
2017-12-08T22:39:20.863Z,6.10
2017-12-08T22:40:20.854Z,5.50
2017-12-08T22:41:20.841Z,6.40
2017-12-08T22:42:21.626Z,5.80
2017-12-08T22:43:20.828Z,6.20
2017-12-08T22:44:20.807Z,4.60
2017-12-08T22:45:20.805Z,6.40
2017-12-08T22:46:20.791Z,5.50
2017-12-08T22:47:20.779Z,5.70
2017-12-08T22:48:20.768Z,6.40
2017-12-08T22:49:20.759Z,5.60
2017-12-08T22:50:20.751Z,6.50
2017-12-08T22:51:20.740Z,3.50
2017-12-08T22:52:20.731Z,6.30
2017-12-08T22:53:20.723Z,4.80
2017-12-08T22:54:20.710Z,4.70
2017-12-08T22:55:20.702Z,5.60
2017-12-08T22:56:20.705Z,6.10
2017-12-08T22:57:20.679Z,7.30
2017-12-08T22:58:20.666Z,7.70
2017-12-08T22:59:20.659Z,6.00
2017-12-08T23:00:20.654Z,6.70
2017-12-08T23:01:20.636Z,6.30
2017-12-08T23:02:20.630Z,5.60
2017-12-08T23:03:20.617Z,6.30
2017-12-08T23:04:20.608Z,6.60
2017-12-08T23:05:20.603Z,4.70
2017-12-08T23:06:20.590Z,7.60
2017-12-08T23:07:20.580Z,7.00
2017-12-08T23:08:20.565Z,7.20
2017-12-08T23:09:20.564Z,6.40
2017-12-08T23:10:20.549Z,6.10
2017-12-08T23:11:20.540Z,6.40
2017-12-08T23:12:20.530Z,6.90
2017-12-08T23:13:20.514Z,6.40
2017-12-08T23:14:20.505Z,8.90
2017-12-08T23:15:20.498Z,6.90
2017-12-08T23:16:20.489Z,6.50
2017-12-08T23:17:20.478Z,7.90
2017-12-08T23:18:20.468Z,5.30
2017-12-08T23:19:20.460Z,6.00
2017-12-08T23:20:20.466Z,5.40
2017-12-08T23:21:20.443Z,8.60
2017-12-08T23:22:20.428Z,7.90
2017-12-08T23:23:20.454Z,8.00
2017-12-08T23:24:20.411Z,7.70
2017-12-08T23:25:20.400Z,8.80
2017-12-08T23:26:20.388Z,7.60
2017-12-08T23:27:20.377Z,6.60
2017-12-08T23:28:20.367Z,7.20
2017-12-08T23:29:20.357Z,9.00
2017-12-08T23:30:20.353Z,7.60
2017-12-08T23:31:20.335Z,9.60
2017-12-08T23:32:20.326Z,9.20
2017-12-08T23:33:20.326Z,6.80
2017-12-08T23:34:20.314Z,7.30
2017-12-08T23:35:20.307Z,8.80
2017-12-08T23:36:20.289Z,8.90
2017-12-08T23:37:20.289Z,7.40
2017-12-08T23:38:20.267Z,7.30
2017-12-08T23:39:20.280Z,7.90
2017-12-08T23:40:20.251Z,9.10
2017-12-08T23:41:20.238Z,6.30
2017-12-08T23:42:20.228Z,8.90
2017-12-08T23:43:20.219Z,8.40
2017-12-08T23:44:20.207Z,8.40
2017-12-08T23:45:20.201Z,8.40
2017-12-08T23:46:20.190Z,7.60
2017-12-08T23:47:20.181Z,7.90
2017-12-08T23:48:20.168Z,9.20
2017-12-08T23:49:20.158Z,8.30
2017-12-08T23:50:20.150Z,7.10
2017-12-08T23:51:20.137Z,8.60
2017-12-08T23:52:20.125Z,8.50
2017-12-08T23:53:20.125Z,7.30
2017-12-08T23:54:20.119Z,8.60
2017-12-08T23:55:20.099Z,8.40
2017-12-08T23:56:20.085Z,7.60
2017-12-08T23:57:20.078Z,9.50
2017-12-08T23:58:20.069Z,9.70
2017-12-08T23:59:20.052Z,6.50
